Notice: Undefined index: language in /storage/ssd5/510/10272510/public_html/vam1/vam/index.php on line 25
Brand Clickair VA

 METAR AND TAF INFORMATION
METAR FOR EGGD
ADDS - METARS form results

(0211 UTC 26 September 2020)
Data provider http://aviationweather.gov/metar/data/
 
METAR text: EGGD 260150Z AUTO 29008KT 9999 NCD 07/03 Q1013
Conditions at: EGGD (BRISTOL/LULSGATE, GB) observed 0150 UTC 26 September 2020
Temperature: 7.0°C (45°F)
Dewpoint: 3.0°C (37°F) [RH = 76%]
Pressure (altimeter): 29.91 inches Hg (1013.0 mb)
Winds: from the WNW (290 degrees) at 9 MPH (8 knots; 4.1 m/s)
Visibility: 6 or more miles (10+ km)
Ceiling: at least 12,000 feet AGL
Clouds: sky clear below 12,000 feet AGL
Weather: no significant weather observed at this time

METAR text: EGGD 260120Z AUTO 30008KT 9999 NCD 07/03 Q1013
Conditions at: EGGD (BRISTOL/LULSGATE, GB) observed 0120 UTC 26 September 2020
Temperature: 7.0°C (45°F)
Dewpoint: 3.0°C (37°F) [RH = 76%]
Pressure (altimeter): 29.91 inches Hg (1013.0 mb)
Winds: from the WNW (300 degrees) at 9 MPH (8 knots; 4.1 m/s)
Visibility: 6 or more miles (10+ km)
Ceiling: at least 12,000 feet AGL
Clouds: sky clear below 12,000 feet AGL
Weather: no significant weather observed at this time

Forecast for: EGGD (BRISTOL/LULSGATE, GB)
Text: TAF EGGD 252300Z 2600/2624 32010KT 9999 SCT040
Forecast period: 0000 UTC 26 September 2020 to 0000 UTC 27 September 2020
Forecast type: FROM: standard forecast or significant change
Winds: from the NW (320 degrees) at 12 MPH (10 knots; 5.1 m/s)
Visibility: 6 or more miles (10+ km)
Ceiling: at least 12,000 feet AGL
Clouds: scattered clouds at 4000 feet AGL
Weather: no significant weather forecast for this period

 AIRPORT MAP

 RUNWAY INFORMATION
Runway 09 Runway length 6598 ft Runway width 151 ft
Runway elevation 613 ft Runway displaced threshold 0 ft Runway heading 86
Runway 27 Runway length 6598 ft Runway width 151 ft
Runway elevation 601 ft Runway displaced threshold 443 ft Runway heading 266

 AIRPORT FREQUENCIES
Type ATIS Name ATIS Frequency 126.025 MHZ
Type GND Name GND Frequency 121.925 MHZ
Type RDR Name RDR Frequency 136.075 MHZ
Type TWR Name TWR Frequency 133.85 MHZ

 AIRPORT NEAR NAVIGATION AIDS
Type NDB Name Bristol Frequency 414 KHZ



Powered by Virtual Airlines Manager [v2.6.2]